Time;durP1;ratioP1;P1;durP2;ratioP2;P2;SDS_P1;SDS_P2;PMS_P1;PMS_P2;Temp;Humidity;BMP_temperature;BMP_pressure;BME280_temperature;BME280_humidity;BME280_pressure;Samples;Min_cycle;Max_cycle;Signal;HPM_P1;HPM_P2
2021/04/11 00:02:07;;;;;;;12.00;10.32;;;2.90;99.90;;;;;;5087915;28;20170;-81
2021/04/11 00:04:36;;;;;;;12.65;10.10;;;2.90;99.90;;;;;;5080460;28;20059;-81
2021/04/11 00:07:04;;;;;;;12.52;8.93;;;3.00;99.90;;;;;;5067839;28;20101;-81
2021/04/11 00:09:31;;;;;;;9.43;8.43;;;3.00;99.90;;;;;;5066534;28;20072;-80
2021/04/11 00:12:00;;;;;;;10.25;9.00;;;3.00;99.90;;;;;;5059665;28;20041;-81
2021/04/11 00:14:26;;;;;;;13.38;9.63;;;3.10;99.90;;;;;;5066378;28;20048;-81
2021/04/11 00:16:51;;;;;;;13.68;9.00;;;3.00;99.90;;;;;;5052046;28;20094;-79
2021/04/11 00:19:17;;;;;;;14.60;10.10;;;3.00;99.90;;;;;;5064444;28;20049;-79
2021/04/11 00:21:43;;;;;;;11.13;8.77;;;3.00;99.90;;;;;;5056474;28;20041;-78
2021/04/11 00:24:09;;;;;;;16.48;11.50;;;3.00;99.90;;;;;;5054801;28;20069;-78
2021/04/11 00:26:35;;;;;;;13.30;10.75;;;3.10;99.90;;;;;;5047228;28;20045;-78
2021/04/11 00:29:03;;;;;;;13.68;10.88;;;3.10;99.90;;;;;;5056601;28;20083;-80
2021/04/11 00:31:29;;;;;;;15.70;11.93;;;3.10;99.90;;;;;;5054189;28;20036;-80
2021/04/11 00:33:55;;;;;;;15.15;11.80;;;3.10;99.90;;;;;;5059856;28;20047;-80
2021/04/11 00:36:28;;;;;;;15.55;12.65;;;3.10;99.90;;;;;;5057199;28;20059;-83
2021/04/11 00:38:54;;;;;;;16.55;12.10;;;3.10;99.90;;;;;;5056868;28;20117;-80
2021/04/11 00:41:25;;;;;;;14.57;10.98;;;3.10;99.90;;;;;;5060223;28;20052;-81
2021/04/11 00:43:52;;;;;;;10.05;9.05;;;3.10;99.90;;;;;;5049125;28;20393;-80
2021/04/11 00:46:47;;;;;;;9.82;8.63;;;3.10;99.90;;;;;;5053657;28;20040;-80
2021/04/11 00:49:30;;;;;;;14.30;9.95;;;3.20;99.90;;;;;;5068154;28;20406;-79
2021/04/11 00:51:56;;;;;;;15.02;10.88;;;3.20;99.90;;;;;;5053585;28;20114;-79
2021/04/11 00:54:22;;;;;;;12.30;9.13;;;3.20;99.90;;;;;;5065380;28;20048;-79
2021/04/11 00:56:48;;;;;;;9.95;8.50;;;3.20;99.90;;;;;;5053438;28;20033;-79
2021/04/11 00:59:15;;;;;;;12.73;10.32;;;3.20;99.90;;;;;;5066958;28;20550;-79
2021/04/11 01:01:42;;;;;;;12.65;9.60;;;3.20;99.90;;;;;;5059930;28;20037;-79
2021/04/11 01:04:13;;;;;;;14.75;11.68;;;3.20;99.90;;;;;;5056373;28;20139;-79
2021/04/11 01:06:49;;;;;;;8.90;7.53;;;3.20;99.90;;;;;;5057783;28;20039;-80
2021/04/11 01:09:21;;;;;;;9.95;8.57;;;3.20;99.90;;;;;;5053617;28;20045;-80
2021/04/11 01:11:48;;;;;;;12.05;8.90;;;3.20;99.90;;;;;;5068095;28;20052;-79
2021/04/11 01:14:15;;;;;;;10.48;7.43;;;3.20;99.90;;;;;;5057188;28;20351;-80
2021/04/11 01:16:42;;;;;;;11.43;8.52;;;3.30;99.90;;;;;;5062510;28;20049;-79
2021/04/11 01:19:13;;;;;;;11.00;8.30;;;3.30;99.90;;;;;;5056476;28;20238;-79
2021/04/11 01:22:24;;;;;;;13.23;9.45;;;3.30;99.90;;;;;;5054928;28;20041;-79
2021/04/11 01:25:05;;;;;;;6.38;4.10;;;3.30;99.90;;;;;;5060117;28;20770;-79
2021/04/11 01:27:34;;;;;;;9.45;6.90;;;3.30;99.90;;;;;;5059022;28;20048;-79
2021/04/11 01:30:05;;;;;;;11.30;8.20;;;3.30;99.90;;;;;;5056449;28;20120;-80
2021/04/11 01:32:31;;;;;;;11.98;9.57;;;3.30;99.90;;;;;;5060117;28;20396;-80
2021/04/11 01:34:57;;;;;;;12.93;8.90;;;3.30;99.90;;;;;;5058615;28;20032;-80
2021/04/11 01:37:25;;;;;;;11.45;8.68;;;3.40;99.90;;;;;;5056948;28;20096;-79
2021/04/11 01:39:52;;;;;;;11.45;10.13;;;3.40;99.90;;;;;;5050199;28;20048;-79
2021/04/11 01:42:20;;;;;;;13.60;9.30;;;3.50;99.90;;;;;;5061642;28;20043;-79
2021/04/11 01:44:49;;;;;;;12.00;8.82;;;3.40;99.90;;;;;;5068575;28;20056;-79
2021/04/11 01:47:17;;;;;;;13.95;10.38;;;3.50;99.90;;;;;;5066604;28;20078;-79
2021/04/11 01:49:44;;;;;;;11.05;7.75;;;3.40;99.90;;;;;;5050954;28;20039;-79
2021/04/11 01:52:20;;;;;;;12.40;8.45;;;3.40;99.90;;;;;;5064377;28;20028;-79
2021/04/11 01:54:47;;;;;;;10.43;8.30;;;3.40;99.90;;;;;;5051527;28;20472;-79
2021/04/11 01:57:28;;;;;;;12.30;9.15;;;3.50;99.90;;;;;;5055233;28;20397;-79
2021/04/11 02:00:12;;;;;;;11.15;8.95;;;3.50;99.90;;;;;;5057266;28;20144;-79
2021/04/11 02:02:39;;;;;;;11.98;9.52;;;3.50;99.90;;;;;;5063016;28;20064;-79
2021/04/11 02:05:15;;;;;;;10.38;6.90;;;3.50;99.90;;;;;;5055478;28;20051;-79
2021/04/11 02:07:41;;;;;;;7.60;4.78;;;3.50;99.90;;;;;;5060043;28;20536;-79
2021/04/11 02:10:08;;;;;;;7.13;5.40;;;3.50;99.90;;;;;;5052685;28;20049;-79
2021/04/11 02:12:35;;;;;;;6.05;5.32;;;3.40;99.90;;;;;;5059146;28;20028;-79
2021/04/11 02:15:10;;;;;;;8.60;5.82;;;3.50;99.90;;;;;;5058749;28;20049;-79
2021/04/11 02:17:37;;;;;;;7.88;7.10;;;3.50;99.90;;;;;;5055568;28;20041;-79
2021/04/11 02:20:06;;;;;;;7.43;6.70;;;3.40;99.90;;;;;;5062858;28;20037;-79
2021/04/11 02:22:33;;;;;;;12.68;7.63;;;3.40;99.90;;;;;;5054416;28;20079;-79
2021/04/11 02:25:00;;;;;;;7.10;6.40;;;3.50;99.90;;;;;;5053322;28;20048;-79
2021/04/11 02:27:26;;;;;;;8.77;7.78;;;3.40;99.90;;;;;;5048680;28;20063;-79
2021/04/11 02:29:52;;;;;;;11.45;8.38;;;3.40;99.90;;;;;;5063732;28;20049;-79
2021/04/11 02:32:19;;;;;;;10.82;8.50;;;3.40;99.90;;;;;;5049025;28;20370;-79
2021/04/11 02:34:45;;;;;;;10.60;8.60;;;3.40;99.90;;;;;;5064565;28;20446;-79
2021/04/11 02:37:32;;;;;;;11.27;8.43;;;3.40;99.90;;;;;;5059494;28;20036;-79
2021/04/11 02:40:00;;;;;;;11.48;8.90;;;3.40;99.90;;;;;;5066450;28;20049;-79
2021/04/11 02:42:34;;;;;;;8.55;7.45;;;3.40;99.90;;;;;;5065922;28;20389;-79
2021/04/11 02:45:08;;;;;;;6.75;6.05;;;3.40;99.90;;;;;;5058603;28;20044;-79
2021/04/11 02:47:34;;;;;;;6.10;5.43;;;3.40;99.90;;;;;;5056293;28;20075;-79
2021/04/11 02:50:00;;;;;;;7.43;5.75;;;3.40;99.90;;;;;;5062179;28;20060;-79
2021/04/11 02:52:34;;;;;;;9.18;6.35;;;3.40;99.90;;;;;;5056361;28;20107;-79
2021/04/11 02:55:00;;;;;;;5.63;4.65;;;3.40;99.90;;;;;;5054634;28;20667;-79
2021/04/11 02:57:28;;;;;;;5.97;4.80;;;3.40;99.90;;;;;;5054053;28;20057;-79
2021/04/11 02:59:55;;;;;;;5.43;4.47;;;3.40;99.90;;;;;;5065890;28;20045;-79
2021/04/11 03:02:23;;;;;;;5.78;3.90;;;3.30;99.90;;;;;;5057864;28;20105;-79
2021/04/11 03:04:53;;;;;;;5.38;3.97;;;3.30;99.90;;;;;;5067086;28;20135;-79
2021/04/11 03:07:24;;;;;;;5.30;3.53;;;3.40;99.90;;;;;;5058069;28;20033;-79
2021/04/11 03:09:58;;;;;;;4.10;3.38;;;3.40;99.90;;;;;;5056615;28;20116;-79
2021/04/11 03:12:24;;;;;;;5.78;4.10;;;3.40;99.90;;;;;;5052105;28;20124;-79
2021/04/11 03:14:51;;;;;;;3.92;3.35;;;3.30;99.90;;;;;;5066024;28;20053;-79
2021/04/11 03:17:21;;;;;;;7.00;3.67;;;3.30;99.90;;;;;;5058816;28;20480;-79
2021/04/11 03:19:52;;;;;;;6.88;4.20;;;3.40;99.90;;;;;;5059911;28;20079;-79
2021/04/11 03:22:19;;;;;;;5.88;4.13;;;3.40;99.90;;;;;;5054335;28;20045;-79
2021/04/11 03:24:48;;;;;;;4.75;3.80;;;3.40;99.90;;;;;;5058255;28;20048;-80
2021/04/11 03:27:38;;;;;;;8.35;4.55;;;3.40;99.90;;;;;;5055514;28;20150;-79
2021/04/11 03:30:31;;;;;;;5.78;4.75;;;3.40;99.90;;;;;;5061953;28;20497;-79
2021/04/11 03:33:18;;;;;;;6.53;5.13;;;3.40;99.90;;;;;;5071708;28;20152;-79
2021/04/11 03:35:47;;;;;;;6.43;4.30;;;3.40;99.90;;;;;;5069223;28;20049;-79
2021/04/11 03:38:35;;;;;;;4.00;3.60;;;3.40;99.90;;;;;;5052035;28;20070;-80
2021/04/11 03:41:02;;;;;;;5.03;3.67;;;3.40;99.90;;;;;;5055806;28;20028;-79
2021/04/11 03:43:32;;;;;;;4.28;3.45;;;3.40;99.90;;;;;;5054748;28;20033;-79
2021/04/11 03:46:04;;;;;;;3.92;2.92;;;3.40;99.90;;;;;;5068665;28;20095;-79
2021/04/11 03:48:38;;;;;;;3.10;2.80;;;3.40;99.90;;;;;;5055314;28;20056;-79
2021/04/11 03:51:15;;;;;;;5.43;3.28;;;3.40;99.90;;;;;;5061136;28;20041;-79
2021/04/11 03:54:13;;;;;;;5.38;3.30;;;3.40;99.90;;;;;;5055877;28;20132;-79
2021/04/11 03:56:44;;;;;;;7.20;3.80;;;3.40;99.90;;;;;;5074618;28;20048;-79
2021/04/11 03:59:17;;;;;;;3.65;2.63;;;3.30;99.90;;;;;;5060171;28;20047;-79
2021/04/11 04:01:48;;;;;;;4.35;3.30;;;3.30;99.90;;;;;;5061749;28;20053;-79
2021/04/11 04:04:19;;;;;;;3.78;2.97;;;3.30;99.90;;;;;;5055918;28;20123;-79
2021/04/11 04:07:08;;;;;;;3.35;2.70;;;3.30;99.90;;;;;;5064060;28;20717;-79
2021/04/11 04:09:37;;;;;;;2.30;2.10;;;3.30;99.90;;;;;;5043290;28;20408;-79
2021/04/11 04:12:11;;;;;;;4.20;2.80;;;3.30;99.90;;;;;;5057830;28;20342;-79
2021/04/11 04:15:00;;;;;;;4.90;2.80;;;3.20;99.90;;;;;;5055084;28;20079;-79
2021/04/11 04:17:28;;;;;;;3.80;2.95;;;3.20;99.90;;;;;;5056047;28;20090;-79
2021/04/11 04:20:12;;;;;;;3.60;2.47;;;3.20;99.90;;;;;;5049202;28;20048;-79
2021/04/11 04:23:04;;;;;;;3.63;2.97;;;3.20;99.90;;;;;;5060089;28;20147;-79
2021/04/11 04:25:57;;;;;;;4.35;3.55;;;3.20;99.90;;;;;;5054873;28;20060;-79
2021/04/11 04:28:23;;;;;;;3.75;3.35;;;3.10;99.90;;;;;;5057210;28;20508;-78
2021/04/11 04:31:32;;;;;;;5.40;3.78;;;3.10;99.90;;;;;;5049042;28;20064;-79
2021/04/11 04:34:39;;;;;;;6.63;4.78;;;3.10;99.90;;;;;;5039735;28;20052;-79
2021/04/11 04:37:17;;;;;;;4.90;2.67;;;3.10;99.90;;;;;;5054031;28;20029;-79
2021/04/11 04:39:54;;;;;;;5.00;3.45;;;3.10;99.90;;;;;;5051260;28;20068;-79
2021/04/11 04:42:23;;;;;;;4.60;2.90;;;3.10;99.90;;;;;;5055140;28;20056;-79
2021/04/11 04:44:48;;;;;;;4.80;2.47;;;3.10;99.90;;;;;;5060886;28;20473;-80
2021/04/11 04:47:24;;;;;;;2.97;2.65;;;3.10;99.90;;;;;;5053233;28;20048;-79
2021/04/11 04:50:30;;;;;;;5.75;3.58;;;3.10;99.90;;;;;;5056652;28;20572;-79
2021/04/11 04:53:33;;;;;;;3.17;2.10;;;3.20;99.90;;;;;;5033589;28;20049;-79
2021/04/11 04:56:03;;;;;;;6.18;3.65;;;3.10;99.90;;;;;;5023506;28;20059;-79
2021/04/11 04:58:33;;;;;;;4.53;3.25;;;3.10;99.90;;;;;;5045871;28;20489;-79
2021/04/11 05:01:18;;;;;;;3.83;3.40;;;3.10;99.90;;;;;;5059188;28;20456;-79
2021/04/11 05:03:48;;;;;;;6.57;3.30;;;3.10;99.90;;;;;;5059988;28;20036;-79
2021/04/11 05:06:13;;;;;;;5.60;2.75;;;3.20;99.90;;;;;;5056710;28;20032;-79
2021/04/11 05:09:07;;;;;;;6.43;3.22;;;3.10;99.90;;;;;;5050313;28;20037;-79
2021/04/11 05:12:02;;;;;;;6.03;3.20;;;3.20;99.90;;;;;;5056262;28;20049;-79
2021/04/11 05:14:39;;;;;;;5.60;3.30;;;3.20;99.90;;;;;;5055681;28;20064;-80
2021/04/11 05:17:13;;;;;;;3.53;2.63;;;3.10;99.90;;;;;;5055760;28;20143;-80
2021/04/11 05:19:46;;;;;;;4.60;3.20;;;3.20;99.90;;;;;;5061817;28;20419;-79
2021/04/11 05:22:21;;;;;;;4.95;3.47;;;3.20;99.90;;;;;;5053076;28;20041;-79
2021/04/11 05:24:54;;;;;;;5.13;3.25;;;3.20;99.90;;;;;;5056714;28;20101;-79
2021/04/11 05:28:21;;;;;;;5.60;3.50;;;3.20;99.90;;;;;;5055435;28;20441;-79
2021/04/11 05:30:57;;;;;;;5.20;3.15;;;3.20;99.90;;;;;;5010984;28;20409;-79
2021/04/11 05:33:24;;;;;;;5.32;2.65;;;3.30;99.90;;;;;;5008155;28;20107;-79
2021/04/11 05:35:59;;;;;;;3.25;2.17;;;3.30;99.90;;;;;;5037813;28;20057;-79
2021/04/11 05:38:31;;;;;;;4.03;2.05;;;3.30;99.90;;;;;;5055364;28;20060;-79
2021/04/11 05:41:08;;;;;;;3.80;2.17;;;3.30;99.90;;;;;;5056594;28;20032;-80
2021/04/11 05:43:53;;;;;;;2.95;1.60;;;3.30;99.90;;;;;;5051681;28;20190;-80
2021/04/11 05:46:30;;;;;;;2.78;1.70;;;3.30;99.90;;;;;;5062701;28;20044;-79
2021/04/11 05:49:01;;;;;;;2.63;1.40;;;3.30;99.90;;;;;;5048579;28;20032;-80
2021/04/11 05:51:38;;;;;;;2.20;0.93;;;3.30;99.90;;;;;;5059661;28;20052;-80
2021/04/11 05:54:14;;;;;;;1.50;1.00;;;3.30;99.90;;;;;;5057255;28;20067;-79
2021/04/11 05:57:06;;;;;;;3.10;1.50;;;3.30;99.90;;;;;;5058922;28;20037;-79
2021/04/11 05:59:39;;;;;;;2.90;1.70;;;3.20;99.90;;;;;;5051097;28;20114;-79
2021/04/11 06:02:09;;;;;;;3.13;1.10;;;3.20;99.90;;;;;;5057886;28;20039;-79
2021/04/11 06:04:45;;;;;;;4.63;1.45;;;3.30;99.90;;;;;;5057366;28;20033;-79
2021/04/11 06:07:25;;;;;;;3.63;1.50;;;3.30;99.90;;;;;;5058026;28;20048;-79
2021/04/11 06:10:04;;;;;;;3.83;1.55;;;3.30;99.90;;;;;;5051364;28;20041;-79
2021/04/11 06:12:50;;;;;;;4.35;1.90;;;3.30;99.90;;;;;;5061159;28;20148;-79
2021/04/11 06:15:38;;;;;;;1.80;1.35;;;3.40;99.90;;;;;;5058932;28;20102;-79
2021/04/11 06:18:07;;;;;;;4.05;2.08;;;3.40;99.90;;;;;;5066800;28;20121;-79
2021/04/11 06:20:34;;;;;;;5.15;1.52;;;3.40;99.90;;;;;;5058969;28;20064;-79
2021/04/11 06:23:24;;;;;;;4.18;1.83;;;3.40;99.90;;;;;;5063464;28;20063;-79
2021/04/11 06:26:07;;;;;;;2.42;1.50;;;3.50;99.90;;;;;;5058815;28;20060;-79
2021/04/11 06:28:48;;;;;;;1.85;1.27;;;3.50;99.90;;;;;;5046229;28;20048;-79
2021/04/11 06:31:25;;;;;;;5.15;1.35;;;3.50;99.90;;;;;;5055036;28;20041;-78
2021/04/11 06:33:57;;;;;;;2.95;1.90;;;3.50;99.90;;;;;;5058862;28;20045;-78
2021/04/11 06:36:31;;;;;;;3.15;1.67;;;3.60;99.90;;;;;;5057183;28;20089;-79
2021/04/11 06:39:01;;;;;;;5.20;1.67;;;3.60;99.90;;;;;;5068778;28;20114;-79
2021/04/11 06:41:54;;;;;;;2.47;1.75;;;3.70;99.90;;;;;;5055441;28;20936;-79
2021/04/11 06:44:45;;;;;;;5.00;2.40;;;3.60;99.90;;;;;;5063957;28;20059;-79
2021/04/11 06:47:39;;;;;;;4.88;2.20;;;3.70;99.90;;;;;;5058331;28;20091;-79
2021/04/11 06:50:20;;;;;;;3.78;1.40;;;3.70;99.90;;;;;;5057603;28;20116;-79
2021/04/11 06:53:01;;;;;;;4.72;1.60;;;3.70;99.90;;;;;;5062099;28;20064;-79
2021/04/11 06:55:50;;;;;;;4.30;2.15;;;3.70;99.90;;;;;;5061073;28;20059;-80
2021/04/11 06:58:29;;;;;;;5.00;1.95;;;3.70;99.90;;;;;;5043980;28;20064;-80
2021/04/11 07:01:21;;;;;;;3.92;1.95;;;3.70;99.90;;;;;;5059401;28;20443;-80
2021/04/11 07:03:58;;;;;;;4.20;1.77;;;3.70;99.90;;;;;;5064599;28;20056;-80
2021/04/11 07:06:52;;;;;;;4.00;1.48;;;3.70;99.90;;;;;;5059854;28;20086;-80
2021/04/11 07:09:31;;;;;;;3.13;1.48;;;3.80;99.90;;;;;;5060376;28;20064;-80
2021/04/11 07:12:15;;;;;;;6.70;1.27;;;3.80;99.80;;;;;;5058175;28;20662;-80
2021/04/11 07:15:17;;;;;;;6.05;1.75;;;3.90;99.90;;;;;;5068119;28;20486;-80
2021/04/11 07:17:48;;;;;;;4.25;1.42;;;3.90;99.50;;;;;;5058368;28;20056;-80
2021/04/11 07:20:46;;;;;;;6.38;1.48;;;3.90;99.50;;;;;;5059037;28;20052;-80
2021/04/11 07:23:33;;;;;;;2.70;1.50;;;4.00;99.90;;;;;;5058702;28;20040;-80
2021/04/11 07:26:17;;;;;;;7.43;1.45;;;4.10;99.90;;;;;;5060242;28;20055;-80
2021/04/11 07:28:56;;;;;;;6.88;1.02;;;4.30;99.90;;;;;;5061646;28;20045;-80
2021/04/11 07:31:53;;;;;;;4.75;1.30;;;4.30;99.40;;;;;;5057426;28;20045;-80
2021/04/11 07:35:10;;;;;;;4.15;1.08;;;4.30;98.90;;;;;;5062698;28;20037;-79
2021/04/11 07:38:13;;;;;;;4.18;1.20;;;4.30;98.70;;;;;;5037734;28;20417;-79
2021/04/11 07:40:39;;;;;;;5.68;1.23;;;4.30;98.20;;;;;;5060966;28;20051;-78
2021/04/11 07:43:30;;;;;;;2.03;1.08;;;4.40;98.90;;;;;;5067099;28;20469;-80
2021/04/11 07:46:26;;;;;;;4.38;1.60;;;4.40;98.40;;;;;;5063316;28;20045;-79
2021/04/11 07:49:10;;;;;;;4.60;0.90;;;4.50;98.90;;;;;;5056773;28;20029;-80
2021/04/11 07:51:51;;;;;;;3.63;1.60;;;4.60;98.70;;;;;;5057332;28;20045;-80
2021/04/11 07:54:44;;;;;;;3.30;1.05;;;4.70;98.90;;;;;;5063031;28;20052;-80
2021/04/11 07:57:31;;;;;;;5.30;1.30;;;4.70;98.40;;;;;;5066858;28;20068;-80
2021/04/11 08:00:10;;;;;;;3.38;1.15;;;4.60;97.90;;;;;;5059508;28;20080;-80
2021/04/11 08:02:58;;;;;;;6.35;1.80;;;4.50;97.80;;;;;;5068824;28;20040;-79
2021/04/11 08:05:35;;;;;;;4.75;1.45;;;4.50;98.70;;;;;;5064227;28;20071;-79
2021/04/11 08:08:24;;;;;;;6.82;1.42;;;4.50;98.60;;;;;;5065944;28;20041;-78
2021/04/11 08:10:58;;;;;;;3.03;0.93;;;4.50;99.00;;;;;;5062709;28;20374;-79
2021/04/11 08:14:04;;;;;;;5.47;1.50;;;4.50;98.60;;;;;;5064928;28;20535;-79
2021/04/11 08:16:48;;;;;;;6.10;1.52;;;4.50;98.00;;;;;;5062816;28;20037;-79
2021/04/11 08:19:54;;;;;;;3.15;1.40;;;4.60;98.50;;;;;;5065565;28;20055;-78
2021/04/11 08:22:53;;;;;;;4.22;0.95;;;4.70;98.70;;;;;;5072936;28;20516;-79
2021/04/11 08:25:28;;;;;;;3.70;1.40;;;4.80;98.40;;;;;;5054458;28;20057;-78
2021/04/11 08:28:03;;;;;;;5.22;1.50;;;4.80;98.20;;;;;;5062499;28;20037;-80
2021/04/11 08:30:38;;;;;;;;;;;4.90;98.00;;;;;;5061222;28;20049;-79
2021/04/11 08:33:31;;;;;;;3.40;1.00;;;4.90;95.80;;;;;;5059130;28;19916;-79
2021/04/11 08:36:12;;;;;;;4.13;1.23;;;4.80;96.50;;;;;;5061177;28;20082;-79
2021/04/11 08:38:51;;;;;;;6.45;1.50;;;4.80;97.50;;;;;;5057507;28;20114;-79
2021/04/11 08:41:28;;;;;;;6.95;1.75;;;4.80;98.10;;;;;;5051665;28;20056;-79
2021/04/11 08:44:04;;;;;;;6.03;1.95;;;4.90;98.20;;;;;;5062033;28;20048;-79
2021/04/11 08:47:07;;;;;;;4.30;1.50;;;4.90;98.20;;;;;;5049837;28;20052;-79
2021/04/11 08:49:57;;;;;;;5.43;1.60;;;4.90;97.10;;;;;;5058074;28;20040;-78
2021/04/11 08:52:56;;;;;;;5.13;1.45;;;4.80;97.30;;;;;;5053160;28;20037;-78
2021/04/11 08:55:32;;;;;;;5.55;1.63;;;4.70;96.70;;;;;;5053522;28;20155;-78
2021/04/11 08:58:30;;;;;;;4.05;1.10;;;4.70;97.20;;;;;;5058142;28;20040;-79
2021/04/11 09:01:18;;;;;;;5.30;1.50;;;4.70;97.60;;;;;;5050400;28;20052;-79
2021/04/11 09:04:06;;;;;;;4.10;1.23;;;4.70;97.00;;;;;;5057082;28;20573;-78
2021/04/11 09:06:43;;;;;;;4.78;1.48;;;4.70;97.40;;;;;;5048995;28;20091;-78
2021/04/11 09:09:33;;;;;;;7.45;1.67;;;4.60;97.30;;;;;;5063813;28;20558;-78
2021/04/11 09:12:32;;;;;;;4.35;1.70;;;4.70;97.60;;;;;;5054288;28;20050;-79
2021/04/11 09:15:11;;;;;;;6.05;1.75;;;4.90;97.70;;;;;;5056835;28;20041;-79
2021/04/11 09:18:06;;;;;;;6.40;1.48;;;4.90;97.60;;;;;;5061594;28;20479;-79
2021/04/11 09:21:17;;;;;;;6.00;1.90;;;4.80;97.20;;;;;;5054329;28;20514;-79
2021/04/11 09:24:28;;;;;;;8.88;2.38;;;4.90;97.80;;;;;;5052362;28;20217;-78
2021/04/11 09:27:24;;;;;;;8.52;2.22;;;4.90;98.00;;;;;;5042085;28;20397;-80
2021/04/11 09:30:05;;;;;;;5.00;1.60;;;5.00;98.20;;;;;;5062355;28;20037;-80
2021/04/11 09:33:10;;;;;;;5.07;1.95;;;5.10;97.70;;;;;;5067485;28;20083;-79
2021/04/11 09:36:05;;;;;;;2.97;1.20;;;5.20;96.60;;;;;;5062106;28;20045;-81
2021/04/11 09:38:47;;;;;;;6.18;1.50;;;5.20;97.40;;;;;;5053428;28;20033;-79
2021/04/11 09:41:28;;;;;;;5.85;1.80;;;5.20;97.60;;;;;;5062879;28;20044;-79
2021/04/11 09:44:13;;;;;;;4.72;1.63;;;5.20;97.30;;;;;;5055410;28;20143;-78
2021/04/11 09:47:15;;;;;;;4.82;1.60;;;5.20;96.50;;;;;;5057627;28;20041;-78
2021/04/11 09:50:15;;;;;;;5.97;2.40;;;5.20;96.90;;;;;;5056518;28;20120;-80
2021/04/11 09:53:00;;;;;;;3.95;1.10;;;5.30;96.00;;;;;;5058954;28;20053;-81
2021/04/11 09:55:44;;;;;;;;;;;5.30;95.10;;;;;;5061312;28;20121;-80
2021/04/11 09:58:59;;;;;;;3.13;1.27;;;5.20;93.70;;;;;;5056985;28;19920;-79
2021/04/11 10:01:54;;;;;;;4.72;1.00;;;5.30;95.50;;;;;;5059648;28;20134;-79
2021/04/11 10:04:57;;;;;;;5.18;1.20;;;5.50;96.10;;;;;;5050065;28;20107;-78
2021/04/11 10:08:06;;;;;;;10.63;4.55;;;5.50;96.50;;;;;;5057281;28;20507;-79
2021/04/11 10:10:42;;;;;;;5.15;1.17;;;5.50;94.10;;;;;;5052917;28;20069;-79
2021/04/11 10:13:38;;;;;;;5.60;1.60;;;5.50;95.30;;;;;;5060979;28;20060;-78
2021/04/11 10:16:16;;;;;;;6.43;1.52;;;5.40;95.10;;;;;;5055449;28;20650;-77
2021/04/11 10:19:01;;;;;;;3.75;1.10;;;5.50;96.30;;;;;;5056889;28;20057;-77
2021/04/11 10:21:27;;;;;;;6.38;1.40;;;5.50;96.00;;;;;;5059606;28;20354;-78
2021/04/11 10:23:56;;;;;;;4.90;1.35;;;5.40;95.70;;;;;;5058799;28;20072;-78
2021/04/11 10:26:33;;;;;;;4.97;1.45;;;5.50;96.30;;;;;;5055129;28;20135;-78
2021/04/11 10:29:04;;;;;;;7.57;1.38;;;5.50;94.40;;;;;;5048939;28;20515;-78
2021/04/11 10:31:40;;;;;;;5.80;1.45;;;5.40;94.90;;;;;;5059132;28;20045;-79
2021/04/11 10:34:16;;;;;;;6.38;1.40;;;5.40;95.10;;;;;;5046084;28;20041;-79
2021/04/11 10:37:01;;;;;;;6.82;1.77;;;5.40;95.40;;;;;;5050730;28;20029;-78
2021/04/11 10:39:54;;;;;;;5.63;1.70;;;5.40;95.30;;;;;;5052106;28;20126;-78
2021/04/11 10:42:29;;;;;;;2.90;1.27;;;5.70;95.80;;;;;;5053483;28;20035;-78
2021/04/11 10:45:05;;;;;;;5.40;1.15;;;5.70;94.40;;;;;;5056647;28;20106;-78
2021/04/11 10:47:41;;;;;;;6.55;1.42;;;5.90;95.20;;;;;;5058085;28;20119;-78
2021/04/11 10:50:38;;;;;;;4.63;1.23;;;6.10;95.30;;;;;;5058077;28;20091;-79
2021/04/11 10:53:17;;;;;;;4.30;1.80;;;6.10;92.80;;;;;;5056122;28;20060;-79
2021/04/11 10:56:04;;;;;;;3.25;1.20;;;6.00;94.20;;;;;;5059402;28;20061;-79
2021/04/11 10:58:50;;;;;;;3.03;1.00;;;5.90;95.60;;;;;;5062127;28;20048;-80
2021/04/11 11:01:38;;;;;;;3.28;1.33;;;5.90;95.10;;;;;;5060234;28;20044;-78
2021/04/11 11:04:24;;;;;;;3.90;1.23;;;6.00;96.20;;;;;;5056017;28;20055;-78
2021/04/11 11:07:05;;;;;;;3.65;1.35;;;6.20;96.10;;;;;;5061585;28;20389;-79
2021/04/11 11:09:44;;;;;;;1.60;0.65;;;6.30;95.50;;;;;;5065127;28;20044;-80
2021/04/11 11:12:29;;;;;;;2.30;0.60;;;6.30;93.90;;;;;;5055428;28;20033;-77
2021/04/11 11:15:13;;;;;;;2.17;0.80;;;6.40;92.90;;;;;;5061104;28;20052;-80
2021/04/11 11:18:00;;;;;;;4.35;0.90;;;6.10;92.70;;;;;;5053260;28;20037;-79
2021/04/11 11:20:39;;;;;;;5.13;1.00;;;6.10;94.20;;;;;;5057512;28;20095;-80
2021/04/11 11:23:38;;;;;;;1.83;0.70;;;6.20;94.40;;;;;;5057587;28;20461;-79
2021/04/11 11:26:41;;;;;;;4.57;1.30;;;6.20;94.80;;;;;;5062643;28;20041;-78
2021/04/11 11:29:47;;;;;;;4.13;0.85;;;6.10;93.80;;;;;;5063087;28;20123;-79
2021/04/11 11:32:41;;;;;;;3.15;0.90;;;6.00;92.90;;;;;;5053931;28;20453;-79
2021/04/11 11:35:10;;;;;;;3.22;0.70;;;5.90;94.60;;;;;;5072176;28;20052;-79
2021/04/11 11:37:43;;;;;;;1.35;0.40;;;5.80;95.20;;;;;;5064917;28;20037;-79
2021/04/11 11:40:34;;;;;;;2.72;0.40;;;5.90;95.20;;;;;;5077558;28;20060;-79
2021/04/11 11:43:28;;;;;;;3.90;0.80;;;6.00;95.00;;;;;;5057890;28;20041;-79
2021/04/11 11:46:20;;;;;;;4.53;1.25;;;6.10;94.50;;;;;;5059136;28;20183;-80
2021/04/11 11:49:04;;;;;;;2.22;0.40;;;6.40;95.00;;;;;;5056699;28;20049;-77
2021/04/11 11:51:48;;;;;;;2.53;0.60;;;6.60;93.90;;;;;;5064057;28;20652;-78
2021/04/11 11:54:32;;;;;;;4.38;0.93;;;6.70;94.60;;;;;;5055628;28;20138;-78
2021/04/11 11:57:22;;;;;;;4.70;1.30;;;6.70;91.30;;;;;;5059508;28;20401;-80
2021/04/11 12:00:08;;;;;;;2.90;0.73;;;6.80;92.90;;;;;;5056952;28;20799;-79
2021/04/11 12:02:44;;;;;;;4.05;0.80;;;6.90;93.50;;;;;;5055913;28;20049;-78
2021/04/11 12:05:36;;;;;;;3.10;0.73;;;7.00;93.40;;;;;;5061111;28;20120;-81
2021/04/11 12:08:25;;;;;;;3.30;1.02;;;7.20;92.00;;;;;;5069436;28;20473;-78
2021/04/11 12:11:17;;;;;;;3.08;0.60;;;7.30;93.20;;;;;;5058765;28;20923;-79
2021/04/11 12:14:07;;;;;;;3.33;0.90;;;7.40;88.50;;;;;;5065703;28;20194;-78
2021/04/11 12:16:45;;;;;;;2.38;0.55;;;7.40;91.60;;;;;;5052737;28;20083;-79
2021/04/11 12:19:45;;;;;;;2.65;0.63;;;7.40;91.60;;;;;;5056487;28;20061;-78
2021/04/11 12:22:20;;;;;;;3.20;1.00;;;7.50;88.70;;;;;;5063935;28;20053;-79
2021/04/11 12:24:57;;;;;;;1.98;0.55;;;7.40;92.10;;;;;;5052970;28;20500;-78
2021/04/11 12:27:38;;;;;;;6.63;0.80;;;7.50;91.90;;;;;;5056448;28;20377;-80
2021/04/11 12:30:08;;;;;;;2.35;0.40;;;7.50;92.80;;;;;;5057540;28;20041;-79
2021/04/11 12:33:03;;;;;;;3.75;0.70;;;7.40;92.00;;;;;;5056860;28;20152;-79
2021/04/11 12:35:50;;;;;;;3.45;0.40;;;7.30;90.80;;;;;;5038198;28;20083;-80
2021/04/11 12:38:41;;;;;;;2.60;0.82;;;7.20;91.10;;;;;;5056126;28;20060;-82
2021/04/11 12:41:17;;;;;;;2.60;1.00;;;7.30;92.50;;;;;;5059560;28;20112;-82
2021/04/11 12:44:07;;;;;;;3.60;0.90;;;7.50;92.50;;;;;;5060775;28;20049;-81
2021/04/11 12:46:37;;;;;;;2.63;0.38;;;7.40;89.90;;;;;;5051315;28;20057;-82
2021/04/11 12:49:18;;;;;;;4.50;0.55;;;7.30;91.10;;;;;;5068005;28;20033;-82
2021/04/11 12:52:09;;;;;;;4.35;0.70;;;7.10;90.30;;;;;;5067989;28;20049;-80
2021/04/11 12:54:59;;;;;;;1.92;0.57;;;6.80;90.70;;;;;;5060392;28;20509;-80
2021/04/11 12:57:29;;;;;;;2.80;0.57;;;6.20;91.70;;;;;;5067752;28;20067;-81
2021/04/11 13:00:12;;;;;;;1.70;0.60;;;6.00;93.20;;;;;;5054906;28;20052;-81
2021/04/11 13:02:50;;;;;;;1.23;0.50;;;5.70;93.20;;;;;;5060748;28;20037;-81
2021/04/11 13:05:46;;;;;;;3.00;0.60;;;5.70;93.90;;;;;;5063976;28;20400;-81
2021/04/11 13:08:25;;;;;;;;;;;5.80;94.50;;;;;;5060963;28;20045;-80
2021/04/11 13:10:55;;;;;;;3.05;0.50;;;5.90;92.00;;;;;;5056633;28;19927;-80
2021/04/11 13:13:40;;;;;;;8.02;0.82;;;6.10;94.60;;;;;;5063872;28;20103;-83
2021/04/11 13:16:30;;;;;;;4.85;0.77;;;6.20;93.70;;;;;;5052099;28;20029;-79
2021/04/11 13:19:03;;;;;;;3.50;0.70;;;6.20;93.50;;;;;;5063706;28;20480;-78
2021/04/11 13:21:39;;;;;;;3.15;0.90;;;6.50;94.50;;;;;;5053625;28;20035;-76
2021/04/11 13:24:18;;;;;;;1.83;0.57;;;6.70;94.70;;;;;;5056059;28;20052;-77
2021/04/11 13:26:53;;;;;;;2.50;0.70;;;7.00;93.40;;;;;;5054759;28;20370;-77
2021/04/11 13:29:45;;;;;;;3.05;0.60;;;7.30;93.70;;;;;;5050952;28;20163;-77
2021/04/11 13:32:23;;;;;;;4.28;0.68;;;7.50;91.40;;;;;;5050418;28;20048;-77
2021/04/11 13:35:04;;;;;;;9.57;4.13;;;7.30;90.40;;;;;;5059543;28;20037;-79
2021/04/11 13:37:33;;;;;;;4.28;0.47;;;6.90;89.90;;;;;;5056584;28;20148;-79
2021/04/11 13:40:03;;;;;;;3.00;0.50;;;6.70;91.90;;;;;;5058012;28;20128;-78
2021/04/11 13:43:03;;;;;;;3.35;0.30;;;6.60;92.50;;;;;;5057524;28;20120;-79
2021/04/11 13:46:10;;;;;;;2.22;0.70;;;6.70;91.20;;;;;;5068350;28;20083;-79
2021/04/11 13:49:28;;;;;;;1.98;0.38;;;6.80;90.50;;;;;;5055227;28;20068;-79
2021/04/11 13:52:18;;;;;;;1.42;0.55;;;6.90;91.70;;;;;;5036285;28;20110;-79
2021/04/11 13:54:56;;;;;;;0.63;0.30;;;7.10;90.50;;;;;;5053255;28;20087;-79
2021/04/11 13:57:46;;;;;;;2.10;0.52;;;7.00;89.30;;;;;;5055665;28;20091;-79
2021/04/11 14:00:30;;;;;;;2.35;0.40;;;6.90;88.80;;;;;;5072670;28;20192;-79
2021/04/11 14:03:15;;;;;;;2.78;0.50;;;7.00;90.80;;;;;;5057521;28;20059;-79
2021/04/11 14:05:43;;;;;;;1.92;0.32;;;7.30;92.10;;;;;;5060002;28;20060;-79